createdAt,value
2022-11-10T00:00:40.825Z,2.43
2022-11-10T00:06:05.612Z,2.13
2022-11-10T00:11:25.768Z,2.23
2022-11-10T00:17:01.302Z,2.40
2022-11-10T00:22:25.832Z,3.60
2022-11-10T00:27:46.144Z,1.93
2022-11-10T00:33:07.544Z,2.50
2022-11-10T00:38:27.931Z,2.37
2022-11-10T00:43:48.960Z,2.23
2022-11-10T00:49:09.327Z,2.83
2022-11-10T00:54:30.257Z,2.50
2022-11-10T00:59:50.814Z,2.60
2022-11-10T01:05:11.447Z,2.83
2022-11-10T01:10:32.055Z,2.90
2022-11-10T01:15:52.472Z,2.60
2022-11-10T01:21:12.803Z,2.63
2022-11-10T01:26:33.484Z,2.40
2022-11-10T01:31:54.041Z,2.73
2022-11-10T01:37:14.510Z,2.60
2022-11-10T01:43:04.832Z,2.43
2022-11-10T01:48:45.085Z,2.27
2022-11-10T01:54:10.722Z,2.40
2022-11-10T01:59:35.522Z,2.80
2022-11-10T02:04:55.885Z,2.67
2022-11-10T02:10:19.943Z,2.53
2022-11-10T02:15:40.359Z,2.30
2022-11-10T02:21:09.674Z,2.73
2022-11-10T02:26:30.308Z,2.17
2022-11-10T02:31:50.730Z,2.43
2022-11-10T02:37:11.590Z,2.53
2022-11-10T02:42:31.823Z,2.40
2022-11-10T02:47:52.320Z,2.03
2022-11-10T02:53:13.008Z,2.10
2022-11-10T02:58:33.528Z,2.00
2022-11-10T03:03:54.195Z,2.13
2022-11-10T03:09:14.317Z,1.90
2022-11-10T03:14:34.719Z,1.80
2022-11-10T03:19:55.194Z,2.33
2022-11-10T03:25:15.591Z,2.33
2022-11-10T03:30:36.092Z,2.00
2022-11-10T03:35:56.772Z,2.87
2022-11-10T03:41:19.850Z,2.10
2022-11-10T03:46:43.489Z,2.20
2022-11-10T03:52:04.307Z,2.63
2022-11-10T03:57:24.686Z,1.93
2022-11-10T04:02:45.266Z,2.20
2022-11-10T04:08:32.211Z,2.07
2022-11-10T04:14:11.326Z,2.60
2022-11-10T04:19:31.795Z,2.47
2022-11-10T04:24:52.183Z,2.23
2022-11-10T04:30:12.794Z,2.30
2022-11-10T04:35:33.426Z,2.20
2022-11-10T04:40:53.995Z,2.03
2022-11-10T04:46:31.934Z,2.07
2022-11-10T04:51:52.338Z,2.33
2022-11-10T04:57:13.052Z,2.63
2022-11-10T05:02:39.229Z,2.63
2022-11-10T05:08:00.507Z,2.83
2022-11-10T05:13:21.504Z,2.73
2022-11-10T05:18:42.411Z,2.20
2022-11-10T05:24:02.641Z,3.50
2022-11-10T05:29:23.325Z,2.57
2022-11-10T05:34:43.869Z,2.20
2022-11-10T05:40:04.767Z,2.07
2022-11-10T05:45:27.521Z,3.20
2022-11-10T05:50:48.402Z,2.30
2022-11-10T05:56:08.536Z,1.87
2022-11-10T06:01:29.320Z,2.57
2022-11-10T06:06:49.960Z,2.47
2022-11-10T06:12:10.564Z,2.17
2022-11-10T06:17:30.876Z,2.40
2022-11-10T06:23:02.871Z,3.20
2022-11-10T06:28:23.322Z,2.90
2022-11-10T06:33:43.922Z,2.70
2022-11-10T06:39:04.047Z,2.47
2022-11-10T06:44:24.496Z,2.03
2022-11-10T06:49:45.144Z,2.43
2022-11-10T06:55:06.020Z,2.50
2022-11-10T07:00:28.157Z,2.20
2022-11-10T07:05:48.614Z,2.53
2022-11-10T07:11:09.120Z,3.50
2022-11-10T07:16:30.845Z,2.27
2022-11-10T07:21:51.803Z,3.07
2022-11-10T07:27:12.204Z,3.40
2022-11-10T07:32:33.014Z,3.67
2022-11-10T07:37:53.218Z,2.57
2022-11-10T07:43:14.296Z,3.47
2022-11-10T07:48:34.462Z,3.13
2022-11-10T07:53:55.109Z,2.80
2022-11-10T07:59:15.572Z,2.30
2022-11-10T08:04:35.963Z,2.17
2022-11-10T08:09:56.487Z,3.37
2022-11-10T08:15:17.234Z,2.80
2022-11-10T08:20:38.300Z,2.53
2022-11-10T08:25:59.999Z,3.50
2022-11-10T08:31:20.360Z,3.10
2022-11-10T08:36:41.145Z,2.80
2022-11-10T08:42:01.568Z,2.57
2022-11-10T08:47:22.634Z,2.57
2022-11-10T08:52:42.882Z,2.90
2022-11-10T08:58:04.808Z,2.57
2022-11-10T09:03:26.376Z,2.40
2022-11-10T09:08:47.322Z,2.72
2022-11-10T09:14:07.820Z,3.33
2022-11-10T09:19:28.715Z,3.00
2022-11-10T09:24:49.241Z,2.80
2022-11-10T09:30:14.515Z,3.13
2022-11-10T09:35:39.011Z,2.97
2022-11-10T09:41:07.095Z,2.70
2022-11-10T09:46:57.891Z,2.10
2022-11-10T09:52:21.684Z,2.72
2022-11-10T09:57:48.682Z,2.53
2022-11-10T10:03:18.011Z,2.60
2022-11-10T10:08:43.182Z,2.50
2022-11-10T10:14:23.571Z,2.15
2022-11-10T10:19:49.132Z,2.15
2022-11-10T10:25:27.867Z,2.63
2022-11-10T10:30:48.670Z,2.00
2022-11-10T10:36:22.555Z,1.65
2022-11-10T10:41:45.954Z,1.60
2022-11-10T10:47:06.716Z,2.10
2022-11-10T10:52:28.207Z,1.77
2022-11-10T10:57:56.019Z,1.77
2022-11-10T11:03:29.707Z,1.83
2022-11-10T11:09:15.266Z,1.60
2022-11-10T11:14:35.450Z,1.65
2022-11-10T11:20:00.021Z,1.92
2022-11-10T11:25:35.026Z,2.03
2022-11-10T11:31:09.727Z,2.17
2022-11-10T11:36:52.960Z,2.22
2022-11-10T11:42:35.116Z,2.00
2022-11-10T11:48:14.075Z,1.90
2022-11-10T11:54:01.408Z,1.83
2022-11-10T11:59:55.655Z,2.13
2022-11-10T12:05:36.651Z,1.67
2022-11-10T12:11:20.519Z,2.00
2022-11-10T12:16:46.158Z,1.83
2022-11-10T12:22:36.085Z,2.17
2022-11-10T12:28:18.660Z,1.60
2022-11-10T12:33:45.494Z,1.50
2022-11-10T12:39:38.387Z,1.80
2022-11-10T12:45:07.968Z,1.85
2022-11-10T12:50:53.287Z,1.95
2022-11-10T12:56:39.716Z,2.00
2022-11-10T13:02:20.452Z,1.80
2022-11-10T13:07:42.782Z,1.63
2022-11-10T13:13:06.345Z,1.65
2022-11-10T13:18:32.207Z,1.17
2022-11-10T13:23:52.631Z,1.20
2022-11-10T13:29:53.351Z,1.05
2022-11-10T13:35:29.167Z,1.13
2022-11-10T13:40:50.149Z,1.25
2022-11-10T13:46:10.705Z,0.85
2022-11-10T13:52:06.199Z,1.00
2022-11-10T13:57:40.100Z,1.00
2022-11-10T14:03:02.553Z,1.10
2022-11-10T14:08:28.111Z,1.30
2022-11-10T14:13:59.785Z,1.08
2022-11-10T14:19:31.562Z,1.23
2022-11-10T14:24:59.744Z,1.42
2022-11-10T14:30:25.555Z,1.48
2022-11-10T14:35:53.707Z,1.70
2022-11-10T14:41:18.767Z,1.50
2022-11-10T14:46:39.070Z,1.70
2022-11-10T14:52:00.382Z,1.90
2022-11-10T14:57:20.644Z,1.17
2022-11-10T15:02:41.932Z,1.80
2022-11-10T15:08:04.569Z,1.30
2022-11-10T15:13:28.290Z,1.40
2022-11-10T15:18:50.973Z,0.98
2022-11-10T15:24:11.882Z,1.58
2022-11-10T15:29:33.801Z,1.63
2022-11-10T15:35:10.863Z,1.70
2022-11-10T15:40:35.902Z,2.10
2022-11-10T15:46:11.607Z,1.70
2022-11-10T15:51:35.554Z,2.23
2022-11-10T15:56:55.912Z,1.90
2022-11-10T16:02:20.364Z,1.83
2022-11-10T16:07:40.930Z,2.27
2022-11-10T16:13:01.323Z,2.70
2022-11-10T16:18:25.264Z,1.90
2022-11-10T16:23:46.623Z,2.00
2022-11-10T16:29:15.433Z,1.97
2022-11-10T16:34:36.022Z,1.83
2022-11-10T16:39:56.861Z,2.13
2022-11-10T16:45:23.654Z,1.80
2022-11-10T16:50:45.547Z,1.70
2022-11-10T16:56:07.286Z,1.70
2022-11-10T17:01:29.927Z,2.27
2022-11-10T17:06:51.804Z,2.53
2022-11-10T17:12:13.404Z,2.33
2022-11-10T17:17:35.433Z,2.50
2022-11-10T17:22:56.646Z,2.77
2022-11-10T17:28:18.677Z,2.90
2022-11-10T17:33:39.371Z,2.53
2022-11-10T17:38:59.657Z,2.87
2022-11-10T17:44:20.855Z,3.70
2022-11-10T17:49:41.389Z,3.40
2022-11-10T17:55:02.332Z,3.60
2022-11-10T18:00:23.198Z,2.97
2022-11-10T18:05:44.397Z,3.23
2022-11-10T18:11:04.688Z,3.67
2022-11-10T18:16:25.426Z,3.70
2022-11-10T18:21:45.820Z,4.17
2022-11-10T18:27:06.323Z,3.70
2022-11-10T18:32:27.487Z,3.90
2022-11-10T18:37:47.616Z,3.83
2022-11-10T18:43:08.347Z,4.67
2022-11-10T18:48:32.136Z,4.20
2022-11-10T18:53:56.457Z,4.53
2022-11-10T18:59:17.373Z,5.60
2022-11-10T19:04:37.792Z,4.37
2022-11-10T19:09:59.821Z,5.50
2022-11-10T19:15:20.141Z,4.57
2022-11-10T19:20:41.667Z,4.67
2022-11-10T19:26:19.424Z,4.67
2022-11-10T19:31:43.679Z,4.17
2022-11-10T19:37:04.200Z,4.63
2022-11-10T19:42:24.463Z,4.13
2022-11-10T19:47:45.351Z,4.47
2022-11-10T19:53:05.646Z,3.53
2022-11-10T19:58:26.053Z,5.57
2022-11-10T20:03:46.925Z,4.53
2022-11-10T20:09:07.321Z,4.40
2022-11-10T20:14:28.302Z,4.77
2022-11-10T20:19:49.036Z,4.93
2022-11-10T20:25:09.831Z,4.50
2022-11-10T20:30:30.247Z,4.27
2022-11-10T20:35:50.794Z,4.90
2022-11-10T20:41:14.766Z,5.23
2022-11-10T20:52:17.278Z,5.03
2022-11-10T20:57:37.486Z,5.13
2022-11-10T21:02:58.098Z,5.27
2022-11-10T21:08:18.597Z,6.10
2022-11-10T21:13:39.388Z,5.57
2022-11-10T21:19:00.797Z,5.43
2022-11-10T21:24:21.426Z,5.83
2022-11-10T21:29:42.326Z,6.20
2022-11-10T21:35:02.858Z,6.10
2022-11-10T21:40:23.216Z,6.17
2022-11-10T21:45:43.937Z,7.20
2022-11-10T21:51:06.503Z,6.57
2022-11-10T21:56:26.721Z,7.87
2022-11-10T22:01:47.291Z,6.57
2022-11-10T22:07:24.433Z,6.97
2022-11-10T22:13:02.971Z,6.97
2022-11-10T22:18:39.624Z,6.17
2022-11-10T22:24:18.529Z,6.27
2022-11-10T22:29:39.120Z,6.73
2022-11-10T22:34:59.770Z,7.30
2022-11-10T22:40:38.925Z,8.60
2022-11-10T22:45:59.376Z,8.67
2022-11-10T22:51:20.069Z,7.73
2022-11-10T22:56:41.356Z,9.47
2022-11-10T23:02:01.897Z,9.90
2022-11-10T23:07:22.210Z,8.93
2022-11-10T23:12:42.805Z,8.47
2022-11-10T23:18:06.686Z,9.10
2022-11-10T23:23:28.759Z,9.13
2022-11-10T23:28:49.572Z,8.60
2022-11-10T23:34:10.130Z,8.57
2022-11-10T23:39:30.783Z,8.30
2022-11-10T23:44:51.120Z,8.00
2022-11-10T23:50:11.527Z,8.23
2022-11-10T23:55:32.020Z,8.67
